createdAt,value
2018-09-09T00:00:27.915Z,17.43
2018-09-09T00:01:27.903Z,17.49
2018-09-09T00:02:27.908Z,17.50
2018-09-09T00:03:27.875Z,17.34
2018-09-09T00:04:27.863Z,17.32
2018-09-09T00:05:27.861Z,17.30
2018-09-09T00:06:27.839Z,17.25
2018-09-09T00:07:27.828Z,17.19
2018-09-09T00:08:27.809Z,17.19
2018-09-09T00:09:27.797Z,17.20
2018-09-09T00:10:27.783Z,17.20
2018-09-09T00:11:27.767Z,17.20
2018-09-09T00:12:27.758Z,17.24
2018-09-09T00:13:27.741Z,17.20
2018-09-09T00:14:27.726Z,17.25
2018-09-09T00:15:27.714Z,17.27
2018-09-09T00:16:27.702Z,17.30
2018-09-09T00:17:27.688Z,17.31
2018-09-09T00:18:27.678Z,17.31
2018-09-09T00:19:27.658Z,17.32
2018-09-09T00:20:27.646Z,17.31
2018-09-09T00:21:27.631Z,17.39
2018-09-09T00:22:27.618Z,17.34
2018-09-09T00:23:27.605Z,17.38
2018-09-09T00:24:27.589Z,17.39
2018-09-09T00:25:27.573Z,17.41
2018-09-09T00:26:27.567Z,17.39
2018-09-09T00:27:27.551Z,17.45
2018-09-09T00:28:27.536Z,17.38
2018-09-09T00:29:27.522Z,17.34
2018-09-09T00:30:27.507Z,17.45
2018-09-09T00:31:27.493Z,17.38
2018-09-09T00:32:27.479Z,17.31
2018-09-09T00:33:27.471Z,17.32
2018-09-09T00:34:27.456Z,17.32
2018-09-09T00:35:27.440Z,17.25
2018-09-09T00:36:27.427Z,17.30
2018-09-09T00:37:27.412Z,17.24
2018-09-09T00:38:27.398Z,17.30
2018-09-09T00:39:27.385Z,17.30
2018-09-09T00:40:27.371Z,17.27
2018-09-09T00:41:27.358Z,17.30
2018-09-09T00:42:27.343Z,17.27
2018-09-09T00:43:27.331Z,17.25
2018-09-09T00:44:27.314Z,17.20
2018-09-09T00:45:27.312Z,17.20
2018-09-09T00:46:27.290Z,17.16
2018-09-09T00:47:27.274Z,17.22
2018-09-09T00:48:27.260Z,17.19
2018-09-09T00:49:27.247Z,17.22
2018-09-09T00:50:27.235Z,17.19
2018-09-09T00:51:27.222Z,17.22
2018-09-09T00:52:27.206Z,17.27
2018-09-09T00:53:27.192Z,17.25
2018-09-09T00:54:27.180Z,17.25
2018-09-09T00:55:27.168Z,17.25
2018-09-09T00:56:27.150Z,17.27
2018-09-09T00:57:27.136Z,17.28
2018-09-09T00:58:27.134Z,17.20
2018-09-09T00:59:27.109Z,17.28
2018-09-09T01:00:27.104Z,17.34
2018-09-09T01:01:27.080Z,17.27
2018-09-09T01:02:27.067Z,17.27
2018-09-09T01:03:27.061Z,17.27
2018-09-09T01:04:27.043Z,17.30
2018-09-09T01:05:27.030Z,17.30
2018-09-09T01:06:27.012Z,17.30
2018-09-09T01:07:26.999Z,17.28
2018-09-09T01:08:26.986Z,17.25
2018-09-09T01:09:26.979Z,17.16
2018-09-09T01:10:26.963Z,17.07
2018-09-09T01:11:26.944Z,17.04
2018-09-09T01:12:26.928Z,17.07
2018-09-09T01:13:26.917Z,17.02
2018-09-09T01:14:26.903Z,16.98
2018-09-09T01:15:26.897Z,16.91
2018-09-09T01:16:26.874Z,16.92
2018-09-09T01:17:26.861Z,16.98
2018-09-09T01:18:26.850Z,16.88
2018-09-09T01:19:26.833Z,16.88
2018-09-09T01:20:26.818Z,16.94
2018-09-09T01:21:26.803Z,16.91
2018-09-09T01:22:26.793Z,16.76
2018-09-09T01:23:26.780Z,16.83
2018-09-09T01:24:26.763Z,16.59
2018-09-09T01:25:26.751Z,16.69
2018-09-09T01:26:26.734Z,16.59
2018-09-09T01:27:26.723Z,16.62
2018-09-09T01:28:26.715Z,16.64
2018-09-09T01:29:26.693Z,16.70
2018-09-09T01:30:26.679Z,16.64
2018-09-09T01:31:26.668Z,16.62
2018-09-09T01:32:26.652Z,16.70
2018-09-09T01:33:26.637Z,16.62
2018-09-09T01:34:26.622Z,16.67
2018-09-09T01:35:26.610Z,16.69
2018-09-09T01:36:26.604Z,16.65
2018-09-09T01:37:26.581Z,16.73
2018-09-09T01:38:26.570Z,16.61
2018-09-09T01:39:26.554Z,16.65
2018-09-09T01:40:26.542Z,16.61
2018-09-09T01:41:26.524Z,16.65
2018-09-09T01:42:26.520Z,16.73
2018-09-09T01:43:26.502Z,16.72
2018-09-09T01:44:26.495Z,16.70
2018-09-09T01:45:26.469Z,16.82
2018-09-09T01:46:26.457Z,16.70
2018-09-09T01:47:26.442Z,16.76
2018-09-09T01:48:26.430Z,16.74
2018-09-09T01:49:26.421Z,16.73
2018-09-09T01:50:26.407Z,16.80
2018-09-09T01:51:26.396Z,16.80
2018-09-09T01:52:26.372Z,16.74
2018-09-09T01:53:26.357Z,16.82
2018-09-09T01:54:26.342Z,16.77
2018-09-09T01:55:26.329Z,16.72
2018-09-09T01:56:26.317Z,16.76
2018-09-09T01:57:26.301Z,16.73
2018-09-09T01:58:26.287Z,16.83
2018-09-09T01:59:26.273Z,16.87
2018-09-09T02:00:26.259Z,16.73
2018-09-09T02:01:26.244Z,16.82
2018-09-09T02:02:26.230Z,16.73
2018-09-09T02:03:26.217Z,16.59
2018-09-09T02:04:26.207Z,16.65
2018-09-09T02:05:26.189Z,16.59
2018-09-09T02:06:26.187Z,16.65
2018-09-09T02:07:26.160Z,16.67
2018-09-09T02:08:26.146Z,16.76
2018-09-09T02:09:26.143Z,16.73
2018-09-09T02:10:26.118Z,16.76
2018-09-09T02:11:26.105Z,16.74
2018-09-09T02:12:26.092Z,16.76
2018-09-09T02:13:26.076Z,16.87
2018-09-09T02:14:26.062Z,16.91
2018-09-09T02:15:26.050Z,16.90
2018-09-09T02:16:26.038Z,16.90
2018-09-09T02:17:26.021Z,16.94
2018-09-09T02:18:26.006Z,16.91
2018-09-09T02:19:25.991Z,16.91
2018-09-09T02:20:25.982Z,16.91
2018-09-09T02:21:25.965Z,16.92
2018-09-09T02:22:25.951Z,16.87
2018-09-09T02:23:25.937Z,16.84
2018-09-09T02:24:25.922Z,16.83
2018-09-09T02:25:25.908Z,16.84
2018-09-09T02:26:25.894Z,16.80
2018-09-09T02:27:25.879Z,16.83
2018-09-09T02:28:25.868Z,16.83
2018-09-09T02:29:25.861Z,16.88
2018-09-09T02:30:25.837Z,16.90
2018-09-09T02:31:25.823Z,16.94
2018-09-09T02:32:25.809Z,16.97
2018-09-09T02:33:25.796Z,16.91
2018-09-09T02:34:25.785Z,16.90
2018-09-09T02:35:25.768Z,16.87
2018-09-09T02:36:25.764Z,16.90
2018-09-09T02:37:25.741Z,16.82
2018-09-09T02:38:25.730Z,16.73
2018-09-09T02:39:25.722Z,16.73
2018-09-09T02:40:25.698Z,16.79
2018-09-09T02:41:25.684Z,16.61
2018-09-09T02:42:25.670Z,16.61
2018-09-09T02:43:25.658Z,16.54
2018-09-09T02:44:25.657Z,16.57
2018-09-09T02:45:25.629Z,16.59
2018-09-09T02:46:25.615Z,16.51
2018-09-09T02:47:25.601Z,16.54
2018-09-09T02:48:25.587Z,16.49
2018-09-09T02:49:25.574Z,16.46
2018-09-09T02:50:25.558Z,16.57
2018-09-09T02:51:25.547Z,16.46
2018-09-09T02:52:25.531Z,16.57
2018-09-09T02:53:25.523Z,16.57
2018-09-09T02:54:25.504Z,16.55
2018-09-09T02:55:25.489Z,16.64
2018-09-09T02:56:25.477Z,16.73
2018-09-09T02:57:25.461Z,16.83
2018-09-09T02:58:25.448Z,16.64
2018-09-09T02:59:25.435Z,16.64
2018-09-09T03:00:25.417Z,16.61
2018-09-09T03:01:25.407Z,16.54
2018-09-09T03:02:25.392Z,16.44
2018-09-09T03:03:25.379Z,16.29
2018-09-09T03:04:25.384Z,16.40
2018-09-09T03:05:25.346Z,16.33
2018-09-09T03:06:25.335Z,16.44
2018-09-09T03:07:25.320Z,16.54
2018-09-09T03:08:25.305Z,16.51
2018-09-09T03:09:25.290Z,16.47
2018-09-09T03:10:25.278Z,16.44
2018-09-09T03:11:25.265Z,16.42
2018-09-09T03:12:25.257Z,16.44
2018-09-09T03:13:25.238Z,16.47
2018-09-09T03:14:25.220Z,16.52
2018-09-09T03:15:25.205Z,16.59
2018-09-09T03:16:25.188Z,16.52
2018-09-09T03:17:25.180Z,16.51
2018-09-09T03:18:25.165Z,16.49
2018-09-09T03:19:25.161Z,16.49
2018-09-09T03:20:25.136Z,16.59
2018-09-09T03:21:25.118Z,16.57
2018-09-09T03:22:25.106Z,16.58
2018-09-09T03:23:25.091Z,16.58
2018-09-09T03:24:25.077Z,16.57
2018-09-09T03:25:25.070Z,16.57
2018-09-09T03:26:25.048Z,16.49
2018-09-09T03:27:25.034Z,16.39
2018-09-09T03:28:25.066Z,16.49
2018-09-09T03:29:25.012Z,16.49
2018-09-09T03:30:24.996Z,16.40
2018-09-09T03:31:24.979Z,16.49
2018-09-09T03:32:24.971Z,16.49
2018-09-09T03:33:24.949Z,16.49
2018-09-09T03:34:24.935Z,16.44
2018-09-09T03:35:24.922Z,16.21
2018-09-09T03:36:24.907Z,16.24
2018-09-09T03:37:24.893Z,16.28
2018-09-09T03:38:24.879Z,16.16
2018-09-09T03:39:24.872Z,16.26
2018-09-09T03:40:24.853Z,16.25
2018-09-09T03:41:24.836Z,16.13
2018-09-09T03:42:24.823Z,16.10
2018-09-09T03:43:24.807Z,16.14
2018-09-09T03:44:24.793Z,16.06
2018-09-09T03:45:24.779Z,16.08
2018-09-09T03:46:24.765Z,16.14
2018-09-09T03:47:24.754Z,16.28
2018-09-09T03:48:24.734Z,16.26
2018-09-09T03:49:24.726Z,16.34
2018-09-09T03:50:24.709Z,16.29
2018-09-09T03:51:24.692Z,16.39
2018-09-09T03:52:24.678Z,16.43
2018-09-09T03:53:24.663Z,16.42
2018-09-09T03:54:24.651Z,16.47
2018-09-09T03:55:24.640Z,16.44
2018-09-09T03:56:24.626Z,16.49
2018-09-09T03:57:24.608Z,16.52
2018-09-09T03:58:24.595Z,16.46
2018-09-09T03:59:24.578Z,16.42
2018-09-09T04:00:24.566Z,16.44
2018-09-09T04:01:24.549Z,16.52
2018-09-09T04:02:24.535Z,16.43
2018-09-09T04:03:24.528Z,16.43
2018-09-09T04:04:24.506Z,16.44
2018-09-09T04:05:24.493Z,16.46
2018-09-09T04:06:24.477Z,16.52
2018-09-09T04:07:24.464Z,16.51
2018-09-09T04:08:24.454Z,16.55
2018-09-09T04:09:24.436Z,16.58
2018-09-09T04:10:24.425Z,16.57
2018-09-09T04:11:24.408Z,16.57
2018-09-09T04:12:24.397Z,16.64
2018-09-09T04:13:24.382Z,16.61
2018-09-09T04:14:24.364Z,16.62
2018-09-09T04:15:24.350Z,16.55
2018-09-09T04:16:24.336Z,16.64
2018-09-09T04:17:24.326Z,16.62
2018-09-09T04:18:24.308Z,16.55
2018-09-09T04:19:24.301Z,16.51
2018-09-09T04:20:24.282Z,16.51
2018-09-09T04:21:24.265Z,16.57
2018-09-09T04:22:24.257Z,16.47
2018-09-09T04:23:24.241Z,16.52
2018-09-09T04:24:24.223Z,16.59
2018-09-09T04:25:24.206Z,16.57
2018-09-09T04:26:24.193Z,16.61
2018-09-09T04:27:24.180Z,16.59
2018-09-09T04:28:24.164Z,16.62
2018-09-09T04:29:24.150Z,16.69
2018-09-09T04:30:24.141Z,16.65
2018-09-09T04:31:24.123Z,16.65
2018-09-09T04:32:24.107Z,16.61
2018-09-09T04:33:24.096Z,16.55
2018-09-09T04:34:24.086Z,16.64
2018-09-09T04:35:24.067Z,16.58
2018-09-09T04:36:24.051Z,16.58
2018-09-09T04:37:24.038Z,16.65
2018-09-09T04:38:24.027Z,16.64
2018-09-09T04:39:24.009Z,16.67
2018-09-09T04:40:23.994Z,16.67
2018-09-09T04:41:23.980Z,16.62
2018-09-09T04:42:23.969Z,16.59
2018-09-09T04:43:23.950Z,16.57
2018-09-09T04:44:23.937Z,16.57
2018-09-09T04:45:23.924Z,16.54
2018-09-09T04:46:24.054Z,16.49
2018-09-09T04:47:23.893Z,16.42
2018-09-09T04:48:23.879Z,16.29
2018-09-09T04:49:23.865Z,16.34
2018-09-09T04:50:23.858Z,16.32
2018-09-09T04:51:23.837Z,16.33
2018-09-09T04:52:23.824Z,16.44
2018-09-09T04:53:23.813Z,16.42
2018-09-09T04:54:23.799Z,16.46
2018-09-09T04:55:23.785Z,16.44
2018-09-09T04:56:23.766Z,16.40
2018-09-09T04:57:23.751Z,16.44
2018-09-09T04:58:23.738Z,16.44
2018-09-09T04:59:23.723Z,16.28
2018-09-09T05:00:23.711Z,16.34
2018-09-09T05:01:23.765Z,16.34
2018-09-09T05:02:23.681Z,16.37
2018-09-09T05:03:23.672Z,16.33
2018-09-09T05:04:23.651Z,16.18
2018-09-09T05:05:23.641Z,16.33
2018-09-09T05:06:23.627Z,16.26
2018-09-09T05:07:23.610Z,16.32
2018-09-09T05:08:23.600Z,16.32
2018-09-09T05:09:23.583Z,16.33
2018-09-09T05:10:23.569Z,16.44
2018-09-09T05:11:23.556Z,16.33
2018-09-09T05:12:23.537Z,16.28
2018-09-09T05:13:23.542Z,16.37
2018-09-09T05:14:23.512Z,16.33
2018-09-09T05:15:23.496Z,16.36
2018-09-09T05:16:23.480Z,16.34
2018-09-09T05:17:23.466Z,16.28
2018-09-09T05:18:23.451Z,16.25
2018-09-09T05:19:23.449Z,16.33
2018-09-09T05:20:23.426Z,16.33
2018-09-09T05:21:23.408Z,16.47
2018-09-09T05:22:23.395Z,16.47
2018-09-09T05:23:23.390Z,16.54
2018-09-09T05:24:23.364Z,16.49
2018-09-09T05:25:23.351Z,16.49
2018-09-09T05:26:23.337Z,16.52
2018-09-09T05:27:23.327Z,16.52
2018-09-09T05:28:23.308Z,16.54
2018-09-09T05:29:23.294Z,16.55
2018-09-09T05:30:23.284Z,16.57
2018-09-09T05:31:23.272Z,16.43
2018-09-09T05:32:23.258Z,16.47
2018-09-09T05:33:23.245Z,16.46
2018-09-09T05:34:23.227Z,16.52
2018-09-09T05:35:23.214Z,16.54
2018-09-09T05:36:23.197Z,16.51
2018-09-09T05:37:23.186Z,16.54
2018-09-09T05:38:23.171Z,16.54
2018-09-09T05:39:23.155Z,16.44
2018-09-09T05:40:23.140Z,16.46
2018-09-09T05:41:23.131Z,16.49
2018-09-09T05:42:23.173Z,16.47
2018-09-09T05:43:23.105Z,16.51
2018-09-09T05:44:23.082Z,16.52
2018-09-09T05:45:23.069Z,16.46
2018-09-09T05:46:23.057Z,16.49
2018-09-09T05:47:23.042Z,16.52
2018-09-09T05:48:23.027Z,16.32
2018-09-09T05:49:23.011Z,16.39
2018-09-09T05:50:22.998Z,16.34
2018-09-09T05:51:22.993Z,16.25
2018-09-09T05:52:22.972Z,16.32
2018-09-09T05:53:22.965Z,16.32
2018-09-09T05:54:22.951Z,16.33
2018-09-09T05:55:22.927Z,16.36
2018-09-09T05:56:22.912Z,16.34
2018-09-09T05:57:22.911Z,16.28
2018-09-09T05:58:22.884Z,16.43
2018-09-09T05:59:22.870Z,16.46
2018-09-09T06:00:22.855Z,16.42
2018-09-09T06:01:22.844Z,16.42
2018-09-09T06:02:22.828Z,16.42
2018-09-09T06:03:22.818Z,16.43
2018-09-09T06:04:22.797Z,16.44
2018-09-09T06:05:22.784Z,16.52
2018-09-09T06:06:22.773Z,16.55
2018-09-09T06:07:22.755Z,16.55
2018-09-09T06:08:22.742Z,16.52
2018-09-09T06:09:22.730Z,16.58
2018-09-09T06:10:22.717Z,16.52
2018-09-09T06:11:22.709Z,16.49
2018-09-09T06:12:22.684Z,16.57
2018-09-09T06:13:22.669Z,16.61
2018-09-09T06:14:22.655Z,16.69
2018-09-09T06:15:22.643Z,16.73
2018-09-09T06:16:22.627Z,16.82
2018-09-09T06:17:22.614Z,16.73
2018-09-09T06:18:22.600Z,16.67
2018-09-09T06:19:22.590Z,16.70
2018-09-09T06:20:22.572Z,16.76
2018-09-09T06:21:22.557Z,16.67
2018-09-09T06:22:22.545Z,16.77
2018-09-09T06:23:22.530Z,16.87
2018-09-09T06:24:22.518Z,16.82
2018-09-09T06:25:22.511Z,16.94
2018-09-09T06:26:22.489Z,16.92
2018-09-09T06:27:22.476Z,16.92
2018-09-09T06:28:22.569Z,16.97
2018-09-09T06:29:22.452Z,17.06
2018-09-09T06:30:22.433Z,17.14
2018-09-09T06:31:22.428Z,17.12
2018-09-09T06:32:22.407Z,17.14
2018-09-09T06:33:22.393Z,17.27
2018-09-09T06:34:22.381Z,17.30
2018-09-09T06:35:22.405Z,17.39
2018-09-09T06:36:22.350Z,17.43
2018-09-09T06:37:22.335Z,17.39
2018-09-09T06:38:22.326Z,17.47
2018-09-09T06:39:22.307Z,17.50
2018-09-09T06:40:22.297Z,17.49
2018-09-09T06:41:22.282Z,17.43
2018-09-09T06:42:22.269Z,17.50
2018-09-09T06:43:22.267Z,17.53
2018-09-09T06:44:22.240Z,17.53
2018-09-09T06:45:22.232Z,17.62
2018-09-09T06:46:22.256Z,17.71
2018-09-09T06:47:22.203Z,17.76
2018-09-09T06:48:22.189Z,17.79
2018-09-09T06:49:22.183Z,17.86
2018-09-09T06:50:22.162Z,17.96
2018-09-09T06:51:22.192Z,18.11
2018-09-09T06:52:22.135Z,18.13
2018-09-09T06:53:22.123Z,18.27
2018-09-09T06:54:22.108Z,18.21
2018-09-09T06:55:22.146Z,18.30
2018-09-09T06:56:22.084Z,18.43
2018-09-09T06:57:22.073Z,18.82
2018-09-09T06:58:22.061Z,19.01
2018-09-09T06:59:22.052Z,19.13
2018-09-09T07:00:22.035Z,19.34
2018-09-09T07:01:22.023Z,19.81
2018-09-09T07:02:22.117Z,20.39
2018-09-09T07:03:22.002Z,20.74
2018-09-09T07:04:21.992Z,20.52
2018-09-09T07:05:21.978Z,20.25
2018-09-09T07:06:21.969Z,20.12
2018-09-09T07:07:21.967Z,20.49
2018-09-09T07:08:21.946Z,21.08
2018-09-09T07:09:21.937Z,21.80
2018-09-09T07:10:21.933Z,21.03
2018-09-09T07:11:22.015Z,20.95
2018-09-09T07:12:21.914Z,21.85
2018-09-09T07:13:21.905Z,22.00
2018-09-09T07:14:21.896Z,22.38
2018-09-09T07:15:21.891Z,22.21
2018-09-09T07:16:21.880Z,21.80
2018-09-09T07:17:21.881Z,21.43
2018-09-09T07:18:21.866Z,21.18
2018-09-09T07:19:21.855Z,21.04
2018-09-09T07:20:21.847Z,21.05
2018-09-09T07:21:21.842Z,21.29
2018-09-09T07:22:21.835Z,21.48
2018-09-09T07:23:21.828Z,21.63
2018-09-09T07:24:21.816Z,22.11
2018-09-09T07:25:21.812Z,22.46
2018-09-09T07:26:21.799Z,22.59
2018-09-09T07:27:21.795Z,22.55
2018-09-09T07:28:21.819Z,22.00
2018-09-09T07:29:21.779Z,21.74
2018-09-09T07:30:21.771Z,21.75
2018-09-09T07:31:21.765Z,22.21
2018-09-09T07:32:21.756Z,22.01
2018-09-09T07:33:21.754Z,21.97
2018-09-09T07:34:21.861Z,21.93
2018-09-09T07:35:21.733Z,21.85
2018-09-09T07:36:21.728Z,21.93
2018-09-09T07:37:21.749Z,21.81
2018-09-09T07:38:21.711Z,21.97
2018-09-09T07:39:21.710Z,21.59
2018-09-09T07:40:21.694Z,21.53
2018-09-09T07:41:21.685Z,21.07
2018-09-09T07:42:21.678Z,20.83
2018-09-09T07:43:21.671Z,20.70
2018-09-09T07:44:21.660Z,20.64
2018-09-09T07:45:21.654Z,20.70
2018-09-09T07:46:21.695Z,20.83
2018-09-09T07:47:21.645Z,20.75
2018-09-09T07:48:21.629Z,20.56
2018-09-09T07:49:21.621Z,20.50
2018-09-09T07:50:21.639Z,20.55
2018-09-09T07:51:21.600Z,20.53
2018-09-09T07:52:21.590Z,20.52
2018-09-09T07:53:21.581Z,20.39
2018-09-09T07:54:21.571Z,20.08
2018-09-09T07:55:21.568Z,20.04
2018-09-09T07:56:21.590Z,19.94
2018-09-09T07:57:21.543Z,19.97
2018-09-09T07:58:21.532Z,20.02
2018-09-09T07:59:21.525Z,20.12
2018-09-09T08:00:21.527Z,20.09
2018-09-09T08:01:21.500Z,19.99
2018-09-09T08:02:21.490Z,19.94
2018-09-09T08:03:21.481Z,20.04
2018-09-09T08:04:21.473Z,20.05
2018-09-09T08:05:21.461Z,20.08
2018-09-09T08:06:21.446Z,20.14
2018-09-09T08:07:21.435Z,20.12
2018-09-09T08:08:21.431Z,20.14
2018-09-09T08:09:21.414Z,20.18
2018-09-09T08:10:21.404Z,20.15
2018-09-09T08:11:21.398Z,20.08
2018-09-09T08:12:21.385Z,20.07
2018-09-09T08:13:21.370Z,20.17
2018-09-09T08:14:21.364Z,20.15
2018-09-09T08:15:21.352Z,20.15
2018-09-09T08:16:21.337Z,20.26
2018-09-09T08:17:21.333Z,20.23
2018-09-09T08:18:21.380Z,20.39
2018-09-09T08:19:21.303Z,20.46
2018-09-09T08:20:21.291Z,20.52
2018-09-09T08:21:21.282Z,20.53
2018-09-09T08:22:21.269Z,20.58
2018-09-09T08:23:21.260Z,20.52
2018-09-09T08:24:21.253Z,20.33
2018-09-09T08:25:21.238Z,20.26
2018-09-09T08:26:21.234Z,20.17
2018-09-09T08:27:21.216Z,20.07
2018-09-09T08:28:21.205Z,19.96
2018-09-09T08:29:21.192Z,19.94
2018-09-09T08:30:21.187Z,20.00
2018-09-09T08:31:21.171Z,20.02
2018-09-09T08:32:21.154Z,20.07
2018-09-09T08:33:21.147Z,20.02
2018-09-09T08:34:21.136Z,20.05
2018-09-09T08:35:21.124Z,19.92
2018-09-09T08:36:21.114Z,20.05
2018-09-09T08:37:21.105Z,20.12
2018-09-09T08:38:21.088Z,20.09
2018-09-09T08:39:21.081Z,20.07
2018-09-09T08:40:21.067Z,20.19
2018-09-09T08:41:21.054Z,20.33
2018-09-09T08:42:21.043Z,20.58
2018-09-09T08:43:21.032Z,20.79
2018-09-09T08:44:21.024Z,20.79
2018-09-09T08:45:21.068Z,20.77
2018-09-09T08:46:21.000Z,20.89
2018-09-09T08:47:20.990Z,21.08
2018-09-09T08:48:20.976Z,21.32
2018-09-09T08:49:20.977Z,21.55
2018-09-09T08:50:20.960Z,21.74
2018-09-09T08:51:20.946Z,22.07
2018-09-09T08:52:20.938Z,22.34
2018-09-09T08:53:20.926Z,22.48
2018-09-09T08:54:20.920Z,22.71
2018-09-09T08:55:20.908Z,22.96
2018-09-09T08:56:20.904Z,22.67
2018-09-09T08:57:20.886Z,22.51
2018-09-09T08:58:20.877Z,22.70
2018-09-09T08:59:20.877Z,22.61
2018-09-09T09:00:20.859Z,22.66
2018-09-09T09:01:20.848Z,23.78
2018-09-09T09:02:20.840Z,23.81
2018-09-09T09:03:20.833Z,23.55
2018-09-09T09:04:20.829Z,23.54
2018-09-09T09:05:20.814Z,23.56
2018-09-09T09:06:20.811Z,24.08
2018-09-09T09:07:20.812Z,23.92
2018-09-09T09:08:20.795Z,23.96
2018-09-09T09:09:20.785Z,24.16
2018-09-09T09:10:20.779Z,24.60
2018-09-09T09:11:20.769Z,24.38
2018-09-09T09:12:20.759Z,24.60
2018-09-09T09:13:20.753Z,24.81
2018-09-09T09:14:20.743Z,24.40
2018-09-09T09:15:20.738Z,24.34
2018-09-09T09:16:20.729Z,24.15
2018-09-09T09:17:20.725Z,24.26
2018-09-09T09:18:20.716Z,24.10
2018-09-09T09:19:20.711Z,24.03
2018-09-09T09:20:20.703Z,24.21
2018-09-09T09:21:20.692Z,24.11
2018-09-09T09:22:20.684Z,24.13
2018-09-09T09:23:20.680Z,24.13
2018-09-09T09:24:20.693Z,24.28
2018-09-09T09:25:20.664Z,24.44
2018-09-09T09:26:20.656Z,24.51
2018-09-09T09:27:20.649Z,24.45
2018-09-09T09:28:20.639Z,24.66
2018-09-09T09:29:20.634Z,25.09
2018-09-09T09:30:20.633Z,25.45
2018-09-09T09:31:20.619Z,25.26
2018-09-09T09:32:20.614Z,25.06
2018-09-09T09:33:20.603Z,24.99
2018-09-09T09:34:20.658Z,24.90
2018-09-09T09:35:20.599Z,25.09
2018-09-09T09:36:20.587Z,24.94
2018-09-09T09:37:20.576Z,24.90
2018-09-09T09:38:20.573Z,24.74
2018-09-09T09:39:20.597Z,24.70
2018-09-09T09:40:20.558Z,24.60
2018-09-09T09:41:20.549Z,24.40
2018-09-09T09:42:20.541Z,24.22
2018-09-09T09:43:20.543Z,23.91
2018-09-09T09:44:20.532Z,23.64
2018-09-09T09:45:20.520Z,23.55
2018-09-09T09:46:20.513Z,23.88
2018-09-09T09:47:20.519Z,24.01
2018-09-09T09:48:20.495Z,24.07
2018-09-09T09:49:20.489Z,23.97
2018-09-09T09:50:20.482Z,24.25
2018-09-09T09:51:20.476Z,24.10
2018-09-09T09:52:20.468Z,24.26
2018-09-09T09:53:20.580Z,24.29
2018-09-09T09:54:20.452Z,24.11
2018-09-09T09:55:20.488Z,24.10
2018-09-09T09:56:20.434Z,24.04
2018-09-09T09:57:20.428Z,24.01
2018-09-09T09:58:20.418Z,23.37
2018-09-09T09:59:20.414Z,23.36
2018-09-09T10:00:20.405Z,23.39
2018-09-09T10:01:20.395Z,23.46
2018-09-09T10:02:20.385Z,23.74
2018-09-09T10:03:20.381Z,23.60
2018-09-09T10:04:20.368Z,23.61
2018-09-09T10:05:20.360Z,23.64
2018-09-09T10:06:20.352Z,23.54
2018-09-09T10:07:20.345Z,23.60
2018-09-09T10:08:20.336Z,23.36
2018-09-09T10:09:20.328Z,23.29
2018-09-09T10:10:20.323Z,23.11
2018-09-09T10:11:20.318Z,22.96
2018-09-09T10:12:20.303Z,23.01
2018-09-09T10:13:20.297Z,23.11
2018-09-09T10:14:20.296Z,23.21
2018-09-09T10:15:20.276Z,23.17
2018-09-09T10:16:20.271Z,23.36
2018-09-09T10:17:20.270Z,23.21
2018-09-09T10:18:20.255Z,23.25
2018-09-09T10:19:20.243Z,23.17
2018-09-09T10:20:20.239Z,23.33
2018-09-09T10:21:20.227Z,23.56
2018-09-09T10:22:20.219Z,23.15
2018-09-09T10:23:20.208Z,23.37
2018-09-09T10:24:20.199Z,23.71
2018-09-09T10:25:20.191Z,23.81
2018-09-09T10:26:20.183Z,23.89
2018-09-09T10:27:20.173Z,23.85
2018-09-09T10:28:20.169Z,23.97
2018-09-09T10:29:20.170Z,24.16
2018-09-09T10:30:20.152Z,24.21
2018-09-09T10:31:20.139Z,23.97
2018-09-09T10:32:20.131Z,23.91
2018-09-09T10:33:20.122Z,23.76
2018-09-09T10:34:20.114Z,24.06
2018-09-09T10:35:20.108Z,24.34
2018-09-09T10:36:20.096Z,24.65
2018-09-09T10:37:20.090Z,24.65
2018-09-09T10:38:20.081Z,24.81
2018-09-09T10:39:20.074Z,25.06
2018-09-09T10:40:20.062Z,25.33
2018-09-09T10:41:20.058Z,25.23
2018-09-09T10:42:20.052Z,25.36
2018-09-09T10:43:20.046Z,25.59
2018-09-09T10:44:20.032Z,25.67
2018-09-09T10:45:20.026Z,25.83
2018-09-09T10:46:20.139Z,26.03
2018-09-09T10:47:20.015Z,25.90
2018-09-09T10:48:20.004Z,25.66
2018-09-09T10:49:20.005Z,25.63
2018-09-09T10:50:19.986Z,25.73
2018-09-09T10:51:19.983Z,25.73
2018-09-09T10:52:19.972Z,25.89
2018-09-09T10:53:19.965Z,25.23
2018-09-09T10:54:19.959Z,25.33
2018-09-09T10:55:19.954Z,25.66
2018-09-09T10:56:19.942Z,25.93
2018-09-09T10:57:19.936Z,26.21
2018-09-09T10:58:19.926Z,26.46
2018-09-09T10:59:19.919Z,26.23
2018-09-09T11:00:19.914Z,26.65
2018-09-09T11:01:19.905Z,26.98
2018-09-09T11:02:19.903Z,27.00
2018-09-09T11:03:19.891Z,26.82
2018-09-09T11:04:19.884Z,26.95
2018-09-09T11:05:19.878Z,27.15
2018-09-09T11:06:19.870Z,27.23
2018-09-09T11:07:19.863Z,27.10
2018-09-09T11:08:19.862Z,27.00
2018-09-09T11:09:19.851Z,27.17
2018-09-09T11:10:19.843Z,27.03
2018-09-09T11:11:19.835Z,26.85
2018-09-09T11:12:19.829Z,26.76
2018-09-09T11:13:19.827Z,26.46
2018-09-09T11:14:19.814Z,26.08
2018-09-09T11:15:19.809Z,25.64
2018-09-09T11:16:19.807Z,25.43
2018-09-09T11:17:19.798Z,25.61
2018-09-09T11:18:19.787Z,25.83
2018-09-09T11:19:19.796Z,25.74
2018-09-09T11:20:19.777Z,25.33
2018-09-09T11:21:19.774Z,25.41
2018-09-09T11:22:19.763Z,25.48
2018-09-09T11:23:19.760Z,25.36
2018-09-09T11:24:19.785Z,25.34
2018-09-09T11:25:19.745Z,25.49
2018-09-09T11:26:19.730Z,25.37
2018-09-09T11:27:19.730Z,25.48
2018-09-09T11:28:19.724Z,24.96
2018-09-09T11:29:19.710Z,25.01
2018-09-09T11:30:19.698Z,25.23
2018-09-09T11:31:19.708Z,25.26
2018-09-09T11:32:19.681Z,25.15
2018-09-09T11:33:19.675Z,25.41
2018-09-09T11:34:19.678Z,25.66
2018-09-09T11:35:19.663Z,25.46
2018-09-09T11:36:19.685Z,25.81
2018-09-09T11:37:19.649Z,26.16
2018-09-09T11:38:19.639Z,26.27
2018-09-09T11:39:19.640Z,26.07
2018-09-09T11:40:19.624Z,25.75
2018-09-09T11:41:19.614Z,25.18
2018-09-09T11:42:19.613Z,25.00
2018-09-09T11:43:19.613Z,24.96
2018-09-09T11:44:19.599Z,25.08
2018-09-09T11:45:19.591Z,24.94
2018-09-09T11:46:19.578Z,25.11
2018-09-09T11:47:19.579Z,24.90
2018-09-09T11:48:19.569Z,24.90
2018-09-09T11:49:19.556Z,24.91
2018-09-09T11:50:19.552Z,25.15
2018-09-09T11:51:19.546Z,25.22
2018-09-09T11:52:19.530Z,25.43
2018-09-09T11:53:19.626Z,25.28
2018-09-09T11:54:19.518Z,25.49
2018-09-09T11:55:19.508Z,25.51
2018-09-09T11:56:19.504Z,25.43
2018-09-09T11:57:19.492Z,25.83
2018-09-09T11:58:19.482Z,25.95
2018-09-09T11:59:19.483Z,26.16
2018-09-09T12:00:19.467Z,26.51
2018-09-09T12:01:19.460Z,26.58
2018-09-09T12:02:19.454Z,26.67
2018-09-09T12:03:19.457Z,26.98
2018-09-09T12:04:19.440Z,26.98
2018-09-09T12:05:19.431Z,27.23
2018-09-09T12:06:19.425Z,27.38
2018-09-09T12:07:19.427Z,27.32
2018-09-09T12:08:19.406Z,27.37
2018-09-09T12:09:19.400Z,26.93
2018-09-09T12:10:19.396Z,27.13
2018-09-09T12:11:19.391Z,27.27
2018-09-09T12:12:19.379Z,27.42
2018-09-09T12:13:19.370Z,27.53
2018-09-09T12:14:19.374Z,27.64
2018-09-09T12:15:19.361Z,27.79
2018-09-09T12:16:19.348Z,27.75
2018-09-09T12:17:19.346Z,27.83
2018-09-09T12:18:19.356Z,27.97
2018-09-09T12:19:19.332Z,28.05
2018-09-09T12:20:19.338Z,27.35
2018-09-09T12:21:19.321Z,27.12
2018-09-09T12:22:19.308Z,26.95
2018-09-09T12:23:19.303Z,26.68
2018-09-09T12:24:19.305Z,26.78
2018-09-09T12:25:19.290Z,27.08
2018-09-09T12:26:19.286Z,27.00
2018-09-09T12:27:19.274Z,26.82
2018-09-09T12:28:19.265Z,26.93
2018-09-09T12:29:19.270Z,26.93
2018-09-09T12:30:19.257Z,27.05
2018-09-09T12:31:19.245Z,27.23
2018-09-09T12:32:19.326Z,27.52
2018-09-09T12:33:19.234Z,27.35
2018-09-09T12:34:19.226Z,27.25
2018-09-09T12:35:19.217Z,27.16
2018-09-09T12:36:19.210Z,27.37
2018-09-09T12:37:19.209Z,27.30
2018-09-09T12:38:19.197Z,27.30
2018-09-09T12:39:19.189Z,27.41
2018-09-09T12:40:19.181Z,27.08
2018-09-09T12:41:19.178Z,27.19
2018-09-09T12:42:19.183Z,27.16
2018-09-09T12:43:19.160Z,27.30
2018-09-09T12:44:19.153Z,27.49
2018-09-09T12:45:19.145Z,27.66
2018-09-09T12:46:19.140Z,27.82
2018-09-09T12:47:19.284Z,28.05
2018-09-09T12:48:19.127Z,28.17
2018-09-09T12:49:19.133Z,28.27
2018-09-09T12:50:19.114Z,28.38
2018-09-09T12:51:19.112Z,28.34
2018-09-09T12:52:19.097Z,28.03